createdAt,value
2019-01-17T00:01:04.599Z,3.70
2019-01-17T00:03:42.349Z,3.70
2019-01-17T00:06:21.179Z,3.70
2019-01-17T00:09:17.328Z,3.60
2019-01-17T00:11:51.765Z,3.60
2019-01-17T00:14:27.241Z,3.50
2019-01-17T00:17:24.086Z,3.60
2019-01-17T00:20:09.727Z,3.60
2019-01-17T00:22:54.142Z,3.60
2019-01-17T00:25:42.641Z,3.60
2019-01-17T00:28:28.335Z,3.60
2019-01-17T00:31:15.717Z,3.60
2019-01-17T00:34:01.806Z,3.60
2019-01-17T00:36:55.054Z,3.60
2019-01-17T00:39:40.934Z,3.60
2019-01-17T00:42:26.958Z,3.60
2019-01-17T00:45:17.707Z,3.60
2019-01-17T00:48:16.751Z,3.60
2019-01-17T00:51:09.906Z,3.50
2019-01-17T00:53:48.733Z,3.50
2019-01-17T00:56:30.554Z,3.60
2019-01-17T00:59:16.325Z,3.50
2019-01-17T01:01:56.390Z,3.50
2019-01-17T01:04:57.273Z,3.50
2019-01-17T01:07:43.155Z,3.50
2019-01-17T01:10:30.538Z,3.50
2019-01-17T01:13:28.610Z,3.50
2019-01-17T01:16:17.526Z,3.60
2019-01-17T01:18:54.850Z,3.60
2019-01-17T01:21:33.587Z,3.60
2019-01-17T01:24:22.330Z,3.70
2019-01-17T01:27:15.434Z,3.80
2019-01-17T01:29:51.967Z,3.80
2019-01-17T01:32:45.566Z,3.90
2019-01-17T01:35:34.308Z,3.90
2019-01-17T01:38:12.495Z,3.80
2019-01-17T01:40:46.839Z,3.80
2019-01-17T01:43:22.374Z,3.80
2019-01-17T01:46:24.645Z,3.80
2019-01-17T01:49:04.387Z,3.80
2019-01-17T01:51:44.866Z,3.90
2019-01-17T01:54:12.684Z,3.90
2019-01-17T01:56:40.471Z,3.90
2019-01-17T01:59:08.318Z,3.90
2019-01-17T02:01:36.197Z,4.00
2019-01-17T02:04:04.054Z,4.00
2019-01-17T02:06:31.942Z,3.90
2019-01-17T02:08:59.707Z,4.00
2019-01-17T02:11:27.512Z,4.00
2019-01-17T02:13:55.690Z,4.00
2019-01-17T02:16:23.494Z,4.00
2019-01-17T02:18:51.440Z,4.00
2019-01-17T02:21:19.246Z,4.00
2019-01-17T02:23:47.026Z,4.10
2019-01-17T02:26:14.882Z,4.10
2019-01-17T02:28:42.729Z,4.10
2019-01-17T02:31:10.785Z,4.10
2019-01-17T02:33:38.574Z,4.20
2019-01-17T02:36:06.339Z,4.20
2019-01-17T02:38:34.195Z,4.20
2019-01-17T02:41:02.078Z,4.20
2019-01-17T02:43:29.951Z,4.30
2019-01-17T02:45:57.727Z,4.30
2019-01-17T02:48:25.510Z,4.40
2019-01-17T02:50:53.328Z,4.40
2019-01-17T02:53:21.114Z,4.40
2019-01-17T02:55:49.150Z,4.40
2019-01-17T02:58:17.107Z,4.50
2019-01-17T03:00:44.874Z,4.50
2019-01-17T03:03:12.686Z,4.50
2019-01-17T03:05:40.539Z,4.60
2019-01-17T03:08:08.483Z,4.60
2019-01-17T03:10:36.352Z,4.60
2019-01-17T03:13:04.233Z,4.60
2019-01-17T03:15:32.082Z,4.70
2019-01-17T03:17:59.854Z,4.70
2019-01-17T03:20:27.738Z,4.70
2019-01-17T03:22:55.714Z,4.70
2019-01-17T03:25:23.842Z,4.80
2019-01-17T03:27:51.648Z,4.80
2019-01-17T03:30:19.474Z,4.70
2019-01-17T03:32:47.372Z,4.80
2019-01-17T03:35:15.525Z,4.80
2019-01-17T03:37:43.315Z,4.90
2019-01-17T03:40:12.723Z,4.90
2019-01-17T03:42:40.615Z,4.90
2019-01-17T03:45:08.895Z,4.90
2019-01-17T03:47:36.747Z,4.90
2019-01-17T03:50:05.337Z,4.90
2019-01-17T03:52:33.211Z,4.90
2019-01-17T03:55:01.058Z,5.00
2019-01-17T03:57:28.943Z,5.00
2019-01-17T03:59:56.791Z,5.00
2019-01-17T04:02:24.663Z,5.00
2019-01-17T04:04:52.542Z,5.00
2019-01-17T04:07:20.405Z,5.00
2019-01-17T04:09:48.200Z,5.10
2019-01-17T04:12:16.017Z,5.00
2019-01-17T04:14:43.790Z,5.00
2019-01-17T04:17:11.948Z,5.00
2019-01-17T04:19:39.727Z,5.10
2019-01-17T04:22:07.518Z,5.10
2019-01-17T04:24:35.300Z,5.10
2019-01-17T04:27:03.206Z,5.10
2019-01-17T04:29:30.986Z,5.10
2019-01-17T04:31:58.862Z,5.10
2019-01-17T04:34:26.650Z,5.10
2019-01-17T04:36:54.492Z,5.10
2019-01-17T04:39:22.386Z,5.10
2019-01-17T04:41:50.234Z,5.10
2019-01-17T04:44:18.115Z,5.10
2019-01-17T04:46:45.977Z,5.20
2019-01-17T04:49:13.932Z,5.20
2019-01-17T04:51:41.818Z,5.20
2019-01-17T04:54:10.730Z,5.20
2019-01-17T04:56:38.562Z,5.20
2019-01-17T04:59:06.472Z,5.20
2019-01-17T05:01:34.567Z,5.20
2019-01-17T05:04:02.350Z,5.30
2019-01-17T05:06:30.311Z,5.30
2019-01-17T05:08:58.193Z,5.30
2019-01-17T05:11:26.071Z,5.30
2019-01-17T05:13:54.334Z,5.40
2019-01-17T05:16:22.293Z,5.30
2019-01-17T05:18:50.082Z,5.40
2019-01-17T05:21:17.887Z,5.40
2019-01-17T05:23:46.002Z,5.50
2019-01-17T05:26:13.788Z,5.40
2019-01-17T05:28:41.580Z,5.40
2019-01-17T05:31:09.347Z,5.50
2019-01-17T05:33:37.436Z,5.50
2019-01-17T05:36:05.262Z,5.50
2019-01-17T05:38:33.118Z,5.50
2019-01-17T05:41:01.234Z,5.50
2019-01-17T05:43:28.998Z,5.60
2019-01-17T05:45:56.842Z,5.70
2019-01-17T05:48:24.778Z,5.70
2019-01-17T05:50:52.600Z,5.60
2019-01-17T05:53:20.436Z,5.70
2019-01-17T05:55:48.599Z,5.60
2019-01-17T05:58:16.468Z,5.70
2019-01-17T06:00:44.351Z,5.70
2019-01-17T06:03:12.207Z,5.80
2019-01-17T06:05:40.354Z,5.70
2019-01-17T06:08:08.144Z,5.80
2019-01-17T06:10:36.102Z,5.80
2019-01-17T06:13:04.956Z,5.80
2019-01-17T06:15:33.123Z,5.80
2019-01-17T06:18:01.948Z,5.80
2019-01-17T06:20:30.022Z,5.80
2019-01-17T06:22:57.814Z,5.90
2019-01-17T06:25:28.247Z,5.80
2019-01-17T06:27:55.078Z,5.70
2019-01-17T06:30:23.051Z,5.80
2019-01-17T06:32:50.939Z,5.80
2019-01-17T06:35:18.807Z,5.80
2019-01-17T06:37:46.584Z,5.80
2019-01-17T06:40:18.886Z,5.80
2019-01-17T06:42:46.701Z,5.70
2019-01-17T06:45:14.673Z,5.80
2019-01-17T06:47:42.506Z,5.80
2019-01-17T06:50:10.312Z,5.80
2019-01-17T06:52:38.159Z,5.80
2019-01-17T06:55:06.270Z,5.70
2019-01-17T06:57:34.183Z,5.80
2019-01-17T07:00:01.967Z,5.70
2019-01-17T07:02:29.830Z,5.80
2019-01-17T07:04:57.704Z,5.80
2019-01-17T07:07:25.666Z,5.80
2019-01-17T07:09:53.534Z,5.80
2019-01-17T07:12:21.457Z,5.80
2019-01-17T07:14:49.266Z,5.70
2019-01-17T07:17:17.238Z,5.80
2019-01-17T07:19:45.002Z,5.80
2019-01-17T07:22:12.890Z,5.80
2019-01-17T07:24:40.769Z,5.80
2019-01-17T07:27:08.643Z,5.70
2019-01-17T07:29:36.764Z,5.70
2019-01-17T07:32:04.869Z,5.70
2019-01-17T07:34:32.739Z,5.70
2019-01-17T07:37:00.650Z,5.60
2019-01-17T07:39:28.427Z,5.60
2019-01-17T07:41:56.254Z,5.70
2019-01-17T07:44:24.078Z,5.60
2019-01-17T07:46:52.046Z,5.70
2019-01-17T07:49:19.927Z,5.70
2019-01-17T07:51:47.806Z,5.70
2019-01-17T07:54:15.699Z,5.70
2019-01-17T07:56:43.617Z,5.70
2019-01-17T07:59:11.397Z,5.70
2019-01-17T08:01:39.374Z,5.70
2019-01-17T08:04:07.224Z,5.70
2019-01-17T08:06:35.112Z,5.70
2019-01-17T08:09:04.366Z,5.70
2019-01-17T08:11:32.167Z,5.70
2019-01-17T08:14:00.031Z,5.80
2019-01-17T08:16:28.146Z,5.80
2019-01-17T08:18:55.968Z,5.80
2019-01-17T08:21:23.758Z,5.80
2019-01-17T08:23:51.770Z,5.80
2019-01-17T08:26:19.585Z,5.80
2019-01-17T08:28:47.359Z,5.80
2019-01-17T08:31:15.154Z,5.80
2019-01-17T08:33:42.970Z,5.80
2019-01-17T08:36:10.834Z,5.80
2019-01-17T08:38:38.699Z,5.80
2019-01-17T08:41:06.647Z,5.80
2019-01-17T08:43:34.438Z,5.90
2019-01-17T08:46:02.207Z,5.80
2019-01-17T08:48:30.100Z,5.90
2019-01-17T08:50:57.873Z,5.90
2019-01-17T08:53:25.670Z,5.90
2019-01-17T08:55:53.463Z,5.90
2019-01-17T08:58:21.266Z,5.90
2019-01-17T09:00:49.050Z,5.90
2019-01-17T09:03:16.889Z,5.80
2019-01-17T09:05:44.726Z,5.90
2019-01-17T09:08:12.615Z,5.90
2019-01-17T09:10:40.386Z,5.90
2019-01-17T09:13:08.182Z,5.90
2019-01-17T09:15:35.953Z,6.00
2019-01-17T09:18:04.198Z,6.00
2019-01-17T09:20:31.967Z,6.00
2019-01-17T09:23:00.799Z,6.10
2019-01-17T09:25:28.563Z,6.10
2019-01-17T09:27:56.400Z,6.20
2019-01-17T09:30:24.173Z,6.20
2019-01-17T09:32:51.998Z,6.20
2019-01-17T09:35:19.860Z,6.20
2019-01-17T09:37:47.738Z,6.20
2019-01-17T09:40:16.461Z,6.20
2019-01-17T09:42:44.314Z,6.20
2019-01-17T09:45:12.187Z,6.30
2019-01-17T09:47:39.979Z,6.30
2019-01-17T09:52:35.254Z,6.50
2019-01-17T09:55:03.182Z,6.60
2019-01-17T09:57:31.070Z,6.60
2019-01-17T09:59:58.947Z,6.60
2019-01-17T10:02:26.818Z,6.60
2019-01-17T10:04:54.681Z,6.70
2019-01-17T10:07:22.465Z,6.70
2019-01-17T10:09:50.571Z,6.70
2019-01-17T10:12:18.338Z,6.70
2019-01-17T10:14:46.240Z,6.60
2019-01-17T10:17:23.507Z,6.50
2019-01-17T10:20:11.034Z,6.50
2019-01-17T10:22:53.834Z,6.50
2019-01-17T10:25:40.917Z,6.50
2019-01-17T10:28:34.626Z,6.60
2019-01-17T10:31:33.960Z,6.60
2019-01-17T10:34:06.837Z,6.70
2019-01-17T10:37:00.156Z,6.70
2019-01-17T10:40:03.023Z,6.70
2019-01-17T10:43:01.169Z,6.70
2019-01-17T10:45:51.638Z,6.70
2019-01-17T10:48:37.775Z,6.80
2019-01-17T10:51:40.310Z,6.80
2019-01-17T10:54:17.203Z,6.90
2019-01-17T10:56:57.768Z,6.90
2019-01-17T10:59:31.069Z,6.90
2019-01-17T11:02:14.782Z,6.90
2019-01-17T11:05:08.034Z,6.90
2019-01-17T11:07:54.259Z,6.90
2019-01-17T11:10:40.082Z,6.90
2019-01-17T11:13:21.759Z,7.00
2019-01-17T11:16:08.820Z,7.10
2019-01-17T11:19:14.082Z,7.10
2019-01-17T11:21:59.889Z,7.10
2019-01-17T11:24:35.440Z,7.10
2019-01-17T11:27:31.514Z,7.10
2019-01-17T11:30:24.494Z,7.20
2019-01-17T11:33:17.746Z,7.20
2019-01-17T11:36:03.809Z,7.30
2019-01-17T11:38:50.111Z,7.40
2019-01-17T11:41:32.659Z,7.30
2019-01-17T11:44:38.427Z,7.30
2019-01-17T11:47:38.019Z,7.20
2019-01-17T11:50:15.058Z,7.10
2019-01-17T11:53:00.845Z,7.10
2019-01-17T11:55:42.944Z,7.00
2019-01-17T11:58:14.468Z,7.00
2019-01-17T12:01:01.535Z,7.00
2019-01-17T12:03:40.035Z,6.90
2019-01-17T12:06:07.905Z,6.80
2019-01-17T12:08:36.054Z,6.90
2019-01-17T12:11:03.958Z,6.90
2019-01-17T12:13:31.888Z,7.00
2019-01-17T12:15:59.665Z,7.00
2019-01-17T12:18:27.505Z,7.10
2019-01-17T12:20:55.298Z,7.10
2019-01-17T12:23:23.226Z,7.10
2019-01-17T12:25:51.042Z,7.10
2019-01-17T12:28:18.826Z,7.10
2019-01-17T12:30:46.616Z,7.10
2019-01-17T12:33:14.743Z,7.20
2019-01-17T12:35:42.562Z,7.20
2019-01-17T12:38:10.340Z,7.20
2019-01-17T12:40:38.204Z,7.30
2019-01-17T12:43:05.975Z,7.50
2019-01-17T12:45:33.775Z,7.50
2019-01-17T12:48:01.538Z,7.60
2019-01-17T12:50:29.431Z,7.60
2019-01-17T12:52:57.350Z,7.60
2019-01-17T12:55:25.166Z,7.60
2019-01-17T12:57:52.957Z,7.50
2019-01-17T13:00:21.158Z,7.40
2019-01-17T13:02:48.937Z,7.30
2019-01-17T13:05:16.774Z,7.20
2019-01-17T13:07:44.595Z,7.20
2019-01-17T13:10:12.614Z,7.30
2019-01-17T13:12:40.381Z,7.20
2019-01-17T13:15:09.218Z,7.20
2019-01-17T13:17:37.098Z,7.20
2019-01-17T13:20:05.547Z,7.20
2019-01-17T13:22:33.317Z,7.20
2019-01-17T13:25:01.106Z,7.20
2019-01-17T13:27:29.073Z,7.30
2019-01-17T13:29:56.952Z,7.30
2019-01-17T13:32:24.841Z,7.40
2019-01-17T13:34:52.678Z,7.40
2019-01-17T13:37:20.479Z,7.50
2019-01-17T13:39:48.319Z,7.50
2019-01-17T13:42:20.818Z,7.40
2019-01-17T13:44:45.602Z,7.40
2019-01-17T13:47:13.492Z,7.40
2019-01-17T13:49:41.270Z,7.40
2019-01-17T13:52:09.226Z,7.40
2019-01-17T13:54:37.042Z,7.30
2019-01-17T13:57:07.707Z,7.20
2019-01-17T13:59:35.720Z,7.20
2019-01-17T14:02:03.811Z,7.10
2019-01-17T14:04:31.600Z,7.10
2019-01-17T14:06:59.424Z,7.10
2019-01-17T14:09:27.227Z,7.10
2019-01-17T14:11:55.014Z,7.10
2019-01-17T14:14:22.783Z,7.10
2019-01-17T14:16:50.591Z,7.10
2019-01-17T14:19:18.390Z,7.20
2019-01-17T14:21:46.173Z,7.20
2019-01-17T14:24:14.014Z,7.30
2019-01-17T14:26:41.814Z,7.40
2019-01-17T14:29:09.636Z,7.40
2019-01-17T14:31:37.418Z,7.30
2019-01-17T14:34:05.445Z,7.30
2019-01-17T14:36:33.229Z,7.20
2019-01-17T14:39:01.000Z,7.30
2019-01-17T14:41:28.781Z,7.30
2019-01-17T14:43:56.655Z,7.30
2019-01-17T14:46:24.466Z,7.30
2019-01-17T14:48:52.277Z,7.30
2019-01-17T14:51:20.187Z,7.30
2019-01-17T14:53:48.055Z,7.20
2019-01-17T14:56:15.874Z,7.20
2019-01-17T14:58:43.834Z,7.10
2019-01-17T15:01:11.654Z,7.10
2019-01-17T15:03:39.493Z,7.10
2019-01-17T15:06:07.618Z,7.00
2019-01-17T15:08:35.386Z,6.90
2019-01-17T15:11:03.189Z,6.80
2019-01-17T15:13:30.979Z,6.80
2019-01-17T15:15:58.754Z,6.70
2019-01-17T15:18:26.582Z,6.60
2019-01-17T15:20:54.362Z,6.60
2019-01-17T15:23:22.151Z,6.50
2019-01-17T15:25:49.997Z,6.40
2019-01-17T15:28:18.086Z,6.30
2019-01-17T15:30:45.883Z,6.20
2019-01-17T15:33:13.701Z,6.20
2019-01-17T15:35:41.478Z,6.20
2019-01-17T15:38:09.326Z,6.10
2019-01-17T15:40:37.194Z,6.10
2019-01-17T15:43:05.050Z,6.00
2019-01-17T15:45:33.006Z,6.00
2019-01-17T15:48:00.822Z,6.00
2019-01-17T15:50:28.639Z,6.00
2019-01-17T15:52:56.472Z,5.90
2019-01-17T15:55:24.243Z,5.90
2019-01-17T15:57:52.090Z,5.90
2019-01-17T16:00:21.074Z,5.80
2019-01-17T16:02:48.968Z,5.80
2019-01-17T16:05:16.730Z,5.80
2019-01-17T16:07:45.606Z,5.80
2019-01-17T16:10:13.866Z,5.80
2019-01-17T16:12:41.758Z,5.90
2019-01-17T16:15:11.156Z,5.80
2019-01-17T16:17:39.037Z,5.80
2019-01-17T16:20:07.554Z,5.80
2019-01-17T16:22:36.482Z,5.90
2019-01-17T16:25:04.663Z,5.90
2019-01-17T16:27:32.510Z,5.90
2019-01-17T16:30:00.335Z,5.90
2019-01-17T16:32:28.188Z,6.00
2019-01-17T16:34:55.999Z,6.00
2019-01-17T16:37:23.809Z,6.00
2019-01-17T16:39:51.627Z,6.00
2019-01-17T16:42:19.666Z,6.10
2019-01-17T16:44:47.674Z,6.10
2019-01-17T16:47:15.548Z,6.10
2019-01-17T16:49:43.462Z,6.10
2019-01-17T16:52:11.305Z,6.10
2019-01-17T16:54:39.247Z,6.10
2019-01-17T16:57:07.099Z,6.10
2019-01-17T16:59:34.918Z,6.10
2019-01-17T17:02:02.727Z,6.00
2019-01-17T17:04:30.705Z,5.90
2019-01-17T17:06:58.484Z,5.90
2019-01-17T17:09:26.311Z,5.80
2019-01-17T17:11:54.067Z,5.80
2019-01-17T17:14:21.930Z,5.80
2019-01-17T17:16:49.755Z,5.80
2019-01-17T17:19:17.675Z,5.80
2019-01-17T17:21:45.562Z,5.80
2019-01-17T17:24:13.385Z,5.80
2019-01-17T17:26:41.213Z,5.80
2019-01-17T17:29:09.075Z,5.70
2019-01-17T17:31:36.846Z,5.70
2019-01-17T17:34:04.766Z,5.50
2019-01-17T17:36:32.693Z,5.20
2019-01-17T17:39:00.606Z,4.90
2019-01-17T17:41:28.369Z,4.70
2019-01-17T17:43:57.248Z,4.60
2019-01-17T17:46:25.194Z,4.50
2019-01-17T17:48:53.151Z,4.50
2019-01-17T17:51:21.019Z,4.50
2019-01-17T17:53:48.998Z,4.40
2019-01-17T17:56:16.939Z,4.40
2019-01-17T17:58:44.770Z,4.30
2019-01-17T18:01:31.803Z,4.30
2019-01-17T18:03:59.701Z,4.20
2019-01-17T18:06:27.477Z,4.20
2019-01-17T18:08:55.653Z,4.20
2019-01-17T18:11:23.521Z,4.20
2019-01-17T18:13:51.359Z,4.20
2019-01-17T18:16:19.134Z,4.20
2019-01-17T18:18:46.954Z,4.10
2019-01-17T18:21:14.731Z,4.00
2019-01-17T18:23:42.549Z,4.10
2019-01-17T18:26:10.422Z,4.00
2019-01-17T18:28:39.748Z,4.00
2019-01-17T18:31:07.759Z,3.90
2019-01-17T18:33:35.549Z,3.90
2019-01-17T18:36:03.558Z,3.90
2019-01-17T18:38:31.468Z,3.80
2019-01-17T18:40:59.302Z,3.80
2019-01-17T18:43:27.122Z,3.80
2019-01-17T18:45:54.950Z,3.70
2019-01-17T18:48:22.754Z,3.70
2019-01-17T18:50:50.574Z,3.70
2019-01-17T18:53:18.352Z,3.70
2019-01-17T18:55:46.495Z,3.60
2019-01-17T18:58:15.626Z,3.60
2019-01-17T19:00:43.810Z,3.60
2019-01-17T19:03:11.610Z,3.50
2019-01-17T19:05:39.518Z,3.50
2019-01-17T19:08:07.604Z,3.50
2019-01-17T19:10:35.428Z,3.50
2019-01-17T19:13:05.998Z,3.50
2019-01-17T19:15:33.849Z,3.50
2019-01-17T19:18:01.714Z,3.50
2019-01-17T19:20:29.656Z,3.50
2019-01-17T19:22:57.513Z,3.50
2019-01-17T19:25:25.338Z,3.50
2019-01-17T19:27:53.181Z,3.50
2019-01-17T19:30:21.927Z,3.60
2019-01-17T19:32:49.872Z,3.60
2019-01-17T19:35:17.763Z,3.60
2019-01-17T19:37:45.573Z,3.60
2019-01-17T19:40:17.062Z,3.60
2019-01-17T19:42:44.921Z,3.70
2019-01-17T19:45:13.230Z,3.70
2019-01-17T19:47:41.162Z,3.70
2019-01-17T19:50:12.107Z,3.70
2019-01-17T19:52:39.874Z,3.70
2019-01-17T19:55:07.785Z,3.70
2019-01-17T19:57:35.630Z,3.70
2019-01-17T20:00:04.694Z,3.70
2019-01-17T20:02:32.462Z,3.80
2019-01-17T20:05:00.257Z,3.70
2019-01-17T20:07:28.174Z,3.70
2019-01-17T20:09:55.978Z,3.70
2019-01-17T20:12:23.867Z,3.70
2019-01-17T20:14:51.690Z,3.70
2019-01-17T20:17:19.647Z,3.70
2019-01-17T20:19:47.406Z,3.70
2019-01-17T20:22:15.362Z,3.70
2019-01-17T20:24:43.128Z,3.70
2019-01-17T20:27:10.943Z,3.70
2019-01-17T20:29:38.730Z,3.80
2019-01-17T20:32:06.693Z,3.80
2019-01-17T20:34:34.567Z,3.70
2019-01-17T20:37:02.504Z,3.70
2019-01-17T20:39:30.567Z,3.70
2019-01-17T20:41:58.416Z,3.70
2019-01-17T20:44:26.235Z,3.60
2019-01-17T20:46:54.160Z,3.70
2019-01-17T20:49:21.974Z,3.70
2019-01-17T20:51:49.881Z,3.70
2019-01-17T20:54:17.714Z,3.70
2019-01-17T20:56:45.682Z,3.70
2019-01-17T20:59:13.582Z,3.70
2019-01-17T21:02:03.806Z,3.70
2019-01-17T21:04:31.611Z,3.60
2019-01-17T21:07:05.501Z,3.70
2019-01-17T21:09:29.597Z,3.60
2019-01-17T21:11:57.501Z,3.60
2019-01-17T21:14:25.594Z,3.60
2019-01-17T21:16:53.478Z,3.60
2019-01-17T21:19:21.306Z,3.60
2019-01-17T21:21:49.454Z,3.50
2019-01-17T21:24:17.313Z,3.50
2019-01-17T21:26:45.171Z,3.50
2019-01-17T21:29:13.034Z,3.40
2019-01-17T21:31:41.366Z,3.40
2019-01-17T21:34:09.287Z,3.40
2019-01-17T21:36:37.206Z,3.40
2019-01-17T21:39:06.593Z,3.40
2019-01-17T21:41:34.470Z,3.40
2019-01-17T21:44:02.294Z,3.40
2019-01-17T21:46:30.226Z,3.40
2019-01-17T21:48:58.031Z,3.40
2019-01-17T21:51:25.913Z,3.30
2019-01-17T21:53:53.753Z,3.40
2019-01-17T21:56:21.653Z,3.40
2019-01-17T21:58:55.778Z,3.30
2019-01-17T22:01:19.206Z,3.30
2019-01-17T22:03:47.002Z,3.30
2019-01-17T22:06:14.837Z,3.40
2019-01-17T22:08:42.974Z,3.40
2019-01-17T22:11:10.782Z,3.40
2019-01-17T22:13:38.663Z,3.40
2019-01-17T22:16:06.526Z,3.40
2019-01-17T22:18:34.483Z,3.40
2019-01-17T22:21:02.363Z,3.40
2019-01-17T22:23:30.234Z,3.40
2019-01-17T22:25:58.094Z,3.30
2019-01-17T22:28:25.874Z,3.30
2019-01-17T22:30:53.839Z,3.30
2019-01-17T22:33:21.727Z,3.30
2019-01-17T22:35:49.738Z,3.20
2019-01-17T22:38:17.583Z,3.30
2019-01-17T22:40:45.575Z,3.20
2019-01-17T22:43:13.402Z,3.20
2019-01-17T22:45:41.170Z,3.10
2019-01-17T22:48:09.033Z,3.10
2019-01-17T22:50:36.867Z,3.10
2019-01-17T22:53:04.830Z,3.10
2019-01-17T22:55:32.719Z,3.10
2019-01-17T22:58:00.507Z,3.10
2019-01-17T23:00:42.191Z,3.10
2019-01-17T23:03:10.038Z,3.10
2019-01-17T23:05:37.902Z,3.10
2019-01-17T23:08:05.782Z,3.10
2019-01-17T23:10:33.626Z,3.10
2019-01-17T23:13:01.521Z,3.00
2019-01-17T23:15:29.370Z,3.00
2019-01-17T23:17:57.167Z,3.00
2019-01-17T23:20:24.998Z,3.00
2019-01-17T23:22:52.792Z,2.90
2019-01-17T23:25:20.709Z,2.90
2019-01-17T23:27:48.497Z,2.90
2019-01-17T23:30:16.446Z,2.80
2019-01-17T23:32:44.229Z,2.70
2019-01-17T23:35:12.085Z,2.60
2019-01-17T23:37:39.876Z,2.50
2019-01-17T23:40:08.030Z,2.40
2019-01-17T23:42:35.910Z,2.40
2019-01-17T23:45:04.662Z,2.50
2019-01-17T23:47:32.458Z,2.40
2019-01-17T23:50:00.282Z,2.40
2019-01-17T23:52:28.091Z,2.40
2019-01-17T23:54:55.982Z,2.40
2019-01-17T23:57:23.910Z,2.40
2019-01-17T23:59:51.710Z,2.40
